createdAt,value
2023-02-05T00:02:07.163Z,89.31
2023-02-05T00:05:09.956Z,89.26
2023-02-05T00:08:12.601Z,89.48
2023-02-05T00:11:16.560Z,88.85
2023-02-05T00:14:19.143Z,89.27
2023-02-05T00:17:21.782Z,88.26
2023-02-05T00:20:24.422Z,88.03
2023-02-05T00:23:26.999Z,88.19
2023-02-05T00:26:31.025Z,87.74
2023-02-05T00:29:33.624Z,87.90
2023-02-05T00:32:37.156Z,88.21
2023-02-05T00:35:39.743Z,87.18
2023-02-05T00:38:43.015Z,87.59
2023-02-05T00:41:46.969Z,87.79
2023-02-05T00:44:49.567Z,87.67
2023-02-05T00:47:52.190Z,86.84
2023-02-05T00:50:55.235Z,86.88
2023-02-05T00:53:57.789Z,87.59
2023-02-05T00:57:01.742Z,87.43
2023-02-05T01:00:06.736Z,88.22
2023-02-05T01:03:09.543Z,87.52
2023-02-05T01:06:12.360Z,86.10
2023-02-05T01:09:14.995Z,87.79
2023-02-05T01:12:18.936Z,86.31
2023-02-05T01:15:21.826Z,87.07
2023-02-05T01:18:24.421Z,86.08
2023-02-05T01:21:27.009Z,87.34
2023-02-05T01:24:29.644Z,87.44
2023-02-05T01:27:34.837Z,87.49
2023-02-05T01:30:37.936Z,86.38
2023-02-05T01:33:40.555Z,87.58
2023-02-05T01:36:43.190Z,89.83
2023-02-05T01:39:45.776Z,88.69
2023-02-05T01:42:49.765Z,89.04
2023-02-05T01:46:22.530Z,88.64
2023-02-05T01:49:29.208Z,89.38
2023-02-05T01:52:31.904Z,87.99
2023-02-05T01:55:39.458Z,86.60
2023-02-05T01:58:46.973Z,89.49
2023-02-05T02:01:49.796Z,86.98
2023-02-05T02:04:56.371Z,88.19
2023-02-05T02:07:58.964Z,89.14
2023-02-05T02:11:03.736Z,89.42
2023-02-05T02:14:10.296Z,89.02
2023-02-05T02:17:14.103Z,89.19
2023-02-05T02:20:19.342Z,87.45
2023-02-05T02:23:28.543Z,87.12
2023-02-05T02:26:49.301Z,86.39
2023-02-05T02:29:58.933Z,86.60
2023-02-05T02:33:07.931Z,87.58
2023-02-05T02:36:16.697Z,87.94
2023-02-05T02:39:21.938Z,86.79
2023-02-05T02:42:30.034Z,86.76
2023-02-05T02:45:36.540Z,87.74
2023-02-05T02:48:42.641Z,87.41
2023-02-05T02:51:47.451Z,86.20
2023-02-05T02:54:53.742Z,86.39
2023-02-05T02:57:57.835Z,87.95
2023-02-05T03:01:05.043Z,87.19
2023-02-05T03:04:10.677Z,86.38
2023-02-05T03:07:18.602Z,86.12
2023-02-05T03:10:26.704Z,86.33
2023-02-05T03:13:30.777Z,85.45
2023-02-05T03:16:34.741Z,85.85
2023-02-05T03:19:37.477Z,84.92
2023-02-05T03:22:40.092Z,84.98
2023-02-05T03:25:42.895Z,86.13
2023-02-05T03:28:45.521Z,85.54
2023-02-05T03:31:58.647Z,84.78
2023-02-05T03:35:20.067Z,85.17
2023-02-05T03:38:39.837Z,87.00
2023-02-05T03:41:58.812Z,85.63
2023-02-05T03:45:26.037Z,86.89
2023-02-05T03:48:48.428Z,86.19
2023-02-05T03:51:57.395Z,85.57
2023-02-05T03:55:07.789Z,87.30
2023-02-05T03:58:16.009Z,86.53
2023-02-05T04:01:19.723Z,87.16
2023-02-05T04:04:23.932Z,86.72
2023-02-05T04:07:26.787Z,87.54
2023-02-05T04:10:29.451Z,86.32
2023-02-05T04:13:32.166Z,86.19
2023-02-05T04:16:34.948Z,85.79
2023-02-05T04:19:39.169Z,87.22
2023-02-05T04:22:41.851Z,86.77
2023-02-05T04:25:44.543Z,85.25
2023-02-05T04:28:47.230Z,87.77
2023-02-05T04:31:50.018Z,86.57
2023-02-05T04:34:54.292Z,86.77
2023-02-05T04:37:57.018Z,86.44
2023-02-05T04:40:59.923Z,86.48
2023-02-05T04:44:02.598Z,86.79
2023-02-05T04:47:05.396Z,86.25
2023-02-05T04:50:10.099Z,86.67
2023-02-05T04:53:12.780Z,85.83
2023-02-05T04:56:17.165Z,86.43
2023-02-05T04:59:19.868Z,87.05
2023-02-05T05:02:23.120Z,86.51
2023-02-05T05:05:27.197Z,84.60
2023-02-05T05:08:29.932Z,86.88
2023-02-05T05:11:32.662Z,87.06
2023-02-05T05:14:35.639Z,86.72
2023-02-05T05:17:38.295Z,86.21
2023-02-05T05:20:42.788Z,87.57
2023-02-05T05:23:45.444Z,85.97
2023-02-05T05:26:48.105Z,85.92
2023-02-05T05:29:50.801Z,88.11
2023-02-05T05:32:53.473Z,86.11
2023-02-05T05:35:57.593Z,86.96
2023-02-05T05:39:20.832Z,87.22
2023-02-05T05:42:40.889Z,86.04
2023-02-05T05:45:43.643Z,86.10
2023-02-05T05:48:46.413Z,86.47
2023-02-05T05:51:50.451Z,86.14
2023-02-05T05:54:53.110Z,85.70
2023-02-05T05:57:55.781Z,86.22
2023-02-05T06:00:58.575Z,87.49
2023-02-05T06:04:03.920Z,87.17
2023-02-05T06:07:08.278Z,85.16
2023-02-05T06:10:11.168Z,85.86
2023-02-05T06:13:13.946Z,85.42
2023-02-05T06:16:16.686Z,85.49
2023-02-05T06:19:19.373Z,86.55
2023-02-05T06:22:23.438Z,87.53
2023-02-05T06:25:26.238Z,87.28
2023-02-05T06:28:28.976Z,87.43
2023-02-05T06:31:31.838Z,87.60
2023-02-05T06:34:34.615Z,87.55
2023-02-05T06:37:47.167Z,86.66
2023-02-05T06:40:50.517Z,86.75
2023-02-05T06:43:53.212Z,86.43
2023-02-05T06:46:56.063Z,86.84
2023-02-05T06:49:58.727Z,86.89
2023-02-05T06:53:02.722Z,87.39
2023-02-05T06:56:06.160Z,85.87
2023-02-05T06:59:08.844Z,84.86
2023-02-05T07:02:14.376Z,85.79
2023-02-05T07:05:17.144Z,84.88
2023-02-05T07:08:21.232Z,85.41
2023-02-05T07:11:24.467Z,85.21
2023-02-05T07:14:27.146Z,84.03
2023-02-05T07:17:29.832Z,85.77
2023-02-05T07:20:32.626Z,85.87
2023-02-05T07:23:37.363Z,86.18
2023-02-05T07:26:42.903Z,86.34
2023-02-05T07:29:45.584Z,85.86
2023-02-05T07:32:48.260Z,84.83
2023-02-05T07:35:50.964Z,85.95
2023-02-05T07:38:55.052Z,84.84
2023-02-05T07:41:57.793Z,84.68
2023-02-05T07:45:00.571Z,86.73
2023-02-05T07:48:03.312Z,86.46
2023-02-05T07:51:06.722Z,87.11
2023-02-05T07:54:12.157Z,86.78
2023-02-05T07:57:14.815Z,85.52
2023-02-05T08:00:17.970Z,86.13
2023-02-05T08:03:22.506Z,85.81
2023-02-05T08:06:26.704Z,85.57
2023-02-05T08:09:30.682Z,85.80
2023-02-05T08:12:33.402Z,86.13
2023-02-05T08:15:38.660Z,86.41
2023-02-05T08:18:41.357Z,85.63
2023-02-05T08:21:44.317Z,85.04
2023-02-05T08:24:48.360Z,86.70
2023-02-05T08:27:51.053Z,87.85
2023-02-05T08:30:54.173Z,87.41
2023-02-05T08:33:57.802Z,85.86
2023-02-05T08:37:00.526Z,84.89
2023-02-05T08:40:04.878Z,85.63
2023-02-05T08:43:08.500Z,85.01
2023-02-05T08:46:12.403Z,85.42
2023-02-05T08:49:16.830Z,86.01
2023-02-05T08:52:19.612Z,84.20
2023-02-05T08:55:23.642Z,85.67
2023-02-05T08:58:26.769Z,84.51
2023-02-05T09:01:29.384Z,85.40
2023-02-05T09:04:32.156Z,85.09
2023-02-05T09:07:34.736Z,82.83
2023-02-05T09:10:38.966Z,82.29
2023-02-05T09:13:41.847Z,83.05
2023-02-05T09:16:44.508Z,85.38
2023-02-05T09:19:47.130Z,84.42
2023-02-05T09:22:50.862Z,82.70
2023-02-05T09:25:54.805Z,83.05
2023-02-05T09:28:58.371Z,82.84
2023-02-05T09:32:01.010Z,83.69
2023-02-05T09:35:03.580Z,85.01
2023-02-05T09:38:06.245Z,84.70
2023-02-05T09:41:18.788Z,85.52
2023-02-05T09:44:30.769Z,84.36
2023-02-05T09:47:39.055Z,83.61
2023-02-05T09:50:43.553Z,83.65
2023-02-05T09:53:49.984Z,83.81
2023-02-05T09:56:57.248Z,84.15
2023-02-05T10:00:00.392Z,83.57
2023-02-05T10:03:10.378Z,81.48
2023-02-05T10:06:31.156Z,80.03
2023-02-05T10:09:46.948Z,80.89
2023-02-05T10:13:15.995Z,80.51
2023-02-05T10:16:45.714Z,80.24
2023-02-05T10:20:31.130Z,77.96
2023-02-05T10:23:55.536Z,78.57
2023-02-05T10:27:03.369Z,80.41
2023-02-05T10:30:16.782Z,77.47
2023-02-05T10:33:36.572Z,78.68
2023-02-05T10:36:39.354Z,79.37
2023-02-05T10:39:42.094Z,79.57
2023-02-05T10:42:48.974Z,80.19
2023-02-05T10:45:53.389Z,78.90
2023-02-05T10:49:02.652Z,78.89
2023-02-05T10:52:05.516Z,75.84
2023-02-05T10:55:12.148Z,76.22
2023-02-05T10:58:29.975Z,74.89
2023-02-05T11:01:37.089Z,72.24
2023-02-05T11:04:45.991Z,73.67
2023-02-05T11:07:50.807Z,75.14
2023-02-05T11:10:54.958Z,75.88
2023-02-05T11:14:00.324Z,73.32
2023-02-05T11:17:09.869Z,75.80
2023-02-05T11:20:26.647Z,76.31
2023-02-05T11:23:31.119Z,77.43
2023-02-05T11:26:33.811Z,74.65
2023-02-05T11:29:36.412Z,78.50
2023-02-05T11:32:40.365Z,78.29
2023-02-05T11:35:53.189Z,77.07
2023-02-05T11:38:57.647Z,79.22
2023-02-05T11:42:10.114Z,78.39
2023-02-05T11:45:19.910Z,78.60
2023-02-05T11:48:32.586Z,80.40
2023-02-05T11:51:41.840Z,80.00
2023-02-05T11:54:46.571Z,78.97
2023-02-05T11:57:59.202Z,78.79
2023-02-05T12:01:04.362Z,80.06
2023-02-05T12:04:19.589Z,80.66
2023-02-05T12:07:24.850Z,81.72
2023-02-05T12:10:37.792Z,79.77
2023-02-05T12:13:58.204Z,79.62
2023-02-05T12:17:13.688Z,79.68
2023-02-05T12:20:24.581Z,80.33
2023-02-05T12:23:37.706Z,80.75
2023-02-05T12:26:43.267Z,82.17
2023-02-05T12:30:00.976Z,80.47
2023-02-05T12:33:28.616Z,81.92
2023-02-05T12:36:47.093Z,81.68
2023-02-05T12:39:54.542Z,79.49
2023-02-05T12:43:03.949Z,80.40
2023-02-05T12:46:21.973Z,80.53
2023-02-05T12:49:45.042Z,82.34
2023-02-05T12:53:01.223Z,81.29
2023-02-05T12:56:32.875Z,79.08
2023-02-05T12:59:40.229Z,79.02
2023-02-05T13:02:53.544Z,77.69
2023-02-05T13:05:59.458Z,75.10
2023-02-05T13:09:09.201Z,73.87
2023-02-05T13:12:17.224Z,69.95
2023-02-05T13:15:21.987Z,65.11
2023-02-05T13:18:29.482Z,60.89
2023-02-05T13:21:51.861Z,62.23
2023-02-05T13:25:17.922Z,56.65
2023-02-05T13:28:40.952Z,58.17
2023-02-05T13:31:48.451Z,60.43
2023-02-05T13:34:54.714Z,64.99
2023-02-05T13:38:14.090Z,66.30
2023-02-05T13:41:41.411Z,69.15
2023-02-05T13:45:19.206Z,69.31
2023-02-05T13:48:47.287Z,71.96
2023-02-05T13:52:10.155Z,72.31
2023-02-05T13:55:39.749Z,73.83
2023-02-05T13:58:49.768Z,74.10
2023-02-05T14:01:57.764Z,72.69
2023-02-05T14:05:02.225Z,73.01
2023-02-05T14:08:05.714Z,75.19
2023-02-05T14:11:08.615Z,73.98
2023-02-05T14:14:31.537Z,74.98
2023-02-05T14:17:55.331Z,73.63
2023-02-05T14:20:58.003Z,75.37
2023-02-05T14:24:02.666Z,74.39
2023-02-05T14:27:20.111Z,73.75
2023-02-05T14:30:49.228Z,74.08
2023-02-05T14:33:51.908Z,75.12
2023-02-05T14:36:55.501Z,75.36
2023-02-05T14:39:59.017Z,74.55
2023-02-05T14:43:13.664Z,74.88
2023-02-05T14:46:29.485Z,74.49
2023-02-05T14:49:41.315Z,75.97
2023-02-05T14:52:48.680Z,77.51
2023-02-05T14:55:55.882Z,76.10
2023-02-05T14:59:01.825Z,76.62
2023-02-05T15:02:44.411Z,76.40
2023-02-05T15:05:54.177Z,73.94
2023-02-05T15:09:04.676Z,77.49
2023-02-05T15:12:32.173Z,75.06
2023-02-05T15:15:37.397Z,76.60
2023-02-05T15:18:43.197Z,75.86
2023-02-05T15:21:50.587Z,76.27
2023-02-05T15:24:54.885Z,76.01
2023-02-05T15:28:02.741Z,77.77
2023-02-05T15:31:15.368Z,77.02
2023-02-05T15:34:38.740Z,77.42
2023-02-05T15:37:46.258Z,77.92
2023-02-05T15:40:49.268Z,79.04
2023-02-05T15:43:59.775Z,80.85
2023-02-05T15:47:05.403Z,82.37
2023-02-05T15:50:14.799Z,79.39
2023-02-05T15:53:31.094Z,79.74
2023-02-05T15:56:37.143Z,81.50
2023-02-05T15:59:41.187Z,81.49
2023-02-05T16:02:54.667Z,82.76
2023-02-05T16:05:58.637Z,81.99
2023-02-05T16:09:01.237Z,82.26
2023-02-05T16:12:12.288Z,81.13
2023-02-05T16:15:15.166Z,80.54
2023-02-05T16:18:23.625Z,79.67
2023-02-05T16:21:32.652Z,81.60
2023-02-05T16:24:40.699Z,81.60
2023-02-05T16:27:48.590Z,80.77
2023-02-05T16:30:56.154Z,81.43
2023-02-05T16:34:02.892Z,80.77
2023-02-05T16:37:10.281Z,80.15
2023-02-05T16:40:13.488Z,80.34
2023-02-05T16:43:29.976Z,80.42
2023-02-05T16:46:32.895Z,80.63
2023-02-05T16:49:35.503Z,81.05
2023-02-05T16:52:39.443Z,81.07
2023-02-05T16:55:43.668Z,82.75
2023-02-05T16:58:49.462Z,83.46
2023-02-05T17:01:53.214Z,82.58
2023-02-05T17:04:57.684Z,81.74
2023-02-05T17:08:04.108Z,81.71
2023-02-05T17:11:08.775Z,82.66
2023-02-05T17:14:23.602Z,82.56
2023-02-05T17:17:28.007Z,82.08
2023-02-05T17:20:32.928Z,81.85
2023-02-05T17:23:37.187Z,83.19
2023-02-05T17:26:42.877Z,82.94
2023-02-05T17:29:45.988Z,84.28
2023-02-05T17:32:50.529Z,85.70
2023-02-05T17:35:53.461Z,84.26
2023-02-05T17:38:57.509Z,84.62
2023-02-05T17:42:07.667Z,84.71
2023-02-05T17:45:17.854Z,85.96
2023-02-05T17:48:21.196Z,85.31
2023-02-05T17:51:25.398Z,84.15
2023-02-05T17:54:29.770Z,84.89
2023-02-05T17:57:33.827Z,84.04
2023-02-05T18:00:36.660Z,83.29
2023-02-05T18:03:40.157Z,84.04
2023-02-05T18:06:43.795Z,84.98
2023-02-05T18:09:47.726Z,83.82
2023-02-05T18:12:50.704Z,83.28
2023-02-05T18:15:54.529Z,86.56
2023-02-05T18:18:57.098Z,86.03
2023-02-05T18:21:59.675Z,85.46
2023-02-05T18:25:04.093Z,84.92
2023-02-05T18:28:06.714Z,84.84
2023-02-05T18:31:11.002Z,84.97
2023-02-05T18:34:13.614Z,84.21
2023-02-05T18:37:17.136Z,85.00
2023-02-05T18:40:21.224Z,86.21
2023-02-05T18:43:23.837Z,86.50
2023-02-05T18:46:26.605Z,85.22
2023-02-05T18:49:29.325Z,85.94
2023-02-05T18:52:31.997Z,87.12
2023-02-05T18:55:36.391Z,87.48
2023-02-05T18:58:39.047Z,86.86
2023-02-05T19:01:42.334Z,89.15
2023-02-05T19:04:45.571Z,89.31
2023-02-05T19:07:48.160Z,90.47
2023-02-05T19:10:52.090Z,90.68
2023-02-05T19:13:58.705Z,90.91
2023-02-05T19:17:01.277Z,91.83
2023-02-05T19:20:05.820Z,91.59
2023-02-05T19:23:08.405Z,91.86
2023-02-05T19:26:14.794Z,92.63
2023-02-05T19:29:19.918Z,93.80
2023-02-05T19:32:23.517Z,93.42
2023-02-05T19:35:26.066Z,95.36
2023-02-05T19:38:28.985Z,95.38
2023-02-05T19:41:34.558Z,94.85
2023-02-05T19:44:37.232Z,96.75
2023-02-05T19:47:39.834Z,96.14
2023-02-05T19:50:43.287Z,97.65
2023-02-05T19:53:46.706Z,98.10
2023-02-05T19:56:51.055Z,97.83
2023-02-05T19:59:53.639Z,99.12
2023-02-05T20:02:56.926Z,98.87
2023-02-05T20:06:04.909Z,98.87
2023-02-05T20:09:10.319Z,99.51
2023-02-05T20:12:14.310Z,100.00
2023-02-05T20:15:17.084Z,100.00
2023-02-05T20:18:19.659Z,100.00
2023-02-05T20:21:22.675Z,100.00
2023-02-05T20:24:25.264Z,100.00
2023-02-05T20:27:29.193Z,100.00
2023-02-05T20:30:49.510Z,100.00
2023-02-05T20:33:52.100Z,100.00
2023-02-05T20:36:56.401Z,100.00
2023-02-05T20:39:58.990Z,100.00
2023-02-05T20:43:04.620Z,100.00
2023-02-05T20:46:07.968Z,100.00
2023-02-05T20:49:11.037Z,100.00
2023-02-05T20:52:13.670Z,100.00
2023-02-05T20:55:16.448Z,100.00
2023-02-05T20:58:20.376Z,100.00
2023-02-05T21:01:25.386Z,100.00
2023-02-05T21:04:28.165Z,100.00
2023-02-05T21:07:30.773Z,100.00
2023-02-05T21:10:33.440Z,100.00
2023-02-05T21:13:37.876Z,100.00
2023-02-05T21:16:40.603Z,100.00
2023-02-05T21:19:43.173Z,100.00
2023-02-05T21:22:45.815Z,100.00
2023-02-05T21:25:49.001Z,100.00
2023-02-05T21:28:55.077Z,100.00
2023-02-05T21:31:57.679Z,100.00
2023-02-05T21:35:00.276Z,100.00
2023-02-05T21:38:02.856Z,100.00
2023-02-05T21:41:09.773Z,100.00
2023-02-05T21:44:14.317Z,100.00
2023-02-05T21:47:16.940Z,100.00
2023-02-05T21:50:19.527Z,100.00
2023-02-05T21:53:22.092Z,100.00
2023-02-05T21:56:26.972Z,100.00
2023-02-05T21:59:30.966Z,100.00
2023-02-05T22:02:33.560Z,100.00
2023-02-05T22:05:36.138Z,100.00
2023-02-05T22:08:40.772Z,100.00
2023-02-05T22:11:43.792Z,100.00
2023-02-05T22:14:48.300Z,100.00
2023-02-05T22:17:50.874Z,100.00
2023-02-05T22:20:53.465Z,99.84
2023-02-05T22:23:57.926Z,100.00
2023-02-05T22:27:00.662Z,99.94
2023-02-05T22:30:04.931Z,100.00
2023-02-05T22:33:07.495Z,100.00
2023-02-05T22:36:11.861Z,100.00
2023-02-05T22:39:14.505Z,100.00
2023-02-05T22:42:18.965Z,98.96
2023-02-05T22:45:24.143Z,99.61
2023-02-05T22:48:26.698Z,98.74
2023-02-05T22:51:31.949Z,99.63
2023-02-05T22:54:34.520Z,99.31
2023-02-05T22:57:37.106Z,100.00
2023-02-05T23:00:41.027Z,99.60
2023-02-05T23:03:45.600Z,99.26
2023-02-05T23:06:48.231Z,99.39
2023-02-05T23:09:50.956Z,99.63
2023-02-05T23:12:53.594Z,100.00
2023-02-05T23:15:57.528Z,99.67
2023-02-05T23:19:02.155Z,98.80
2023-02-05T23:22:09.495Z,99.62
2023-02-05T23:25:12.676Z,100.00
2023-02-05T23:28:15.268Z,100.00
2023-02-05T23:31:19.366Z,99.53
2023-02-05T23:34:22.098Z,99.72
2023-02-05T23:37:24.772Z,100.00
2023-02-05T23:40:27.376Z,99.48
2023-02-05T23:43:32.465Z,100.00
2023-02-05T23:46:37.450Z,99.68
2023-02-05T23:49:40.029Z,99.86
2023-02-05T23:52:42.588Z,99.67
2023-02-05T23:55:45.534Z,99.35
2023-02-05T23:58:48.240Z,99.76
